Pinebluff, North Carolina
Current Conditions -  °F | °C
As of 3:56 PM on Sunday 23 Nov 2014 (Local Time) from KHFF Reporting Station
Rain Showers Rain Showers  
Wind Chill: 56°   Ceiling: 300
Heat Index: 56°   Visibility: 2.2mi
Dew Point: 56°   Wind: 6mph
Humidity: 100%   Direction: 40°NE
Pressure: 29.98"   Gusts: NA
Location:  35.11°N, 79.47°W
Report Text: KHFF 232056Z AUTO 04005KT 2 1/4SM -SHRA BR OVC003 13/13 A2998 RMK AO2 LTG DSNT SW SLP155 P0002 60007 T01340134 57037
Loading
Personal Weather Stations






























Interactive Weather Map New forecast layout! Learn more

10-Day Weather Forecast

Advertisements
Track Severe Weather on mobile